Time;durP1;ratioP1;P1;durP2;ratioP2;P2;SDS_P1;SDS_P2;PMS_P1;PMS_P2;Temp;Humidity;BMP_temperature;BMP_pressure;BME280_temperature;BME280_humidity;BME280_pressure;Samples;Min_cycle;Max_cycle;Signal;HPM_P1;HPM_P2
2021/10/30 00:00:55;;;;;;;10.40;7.80;;;;;;;10.62;100.00;100391.63;2107644;28;20081;-64
2021/10/30 00:01:55;;;;;;;11.60;8.27;;;;;;;10.68;100.00;100390.47;2107530;28;20439;-64
2021/10/30 00:02:55;;;;;;;7.47;6.67;;;;;;;10.70;100.00;100388.63;2106929;28;20097;-64
2021/10/30 00:03:55;;;;;;;9.60;7.63;;;;;;;10.75;100.00;100391.88;2106934;28;20039;-64
2021/10/30 00:04:56;;;;;;;10.73;8.03;;;;;;;10.80;100.00;100395.06;2107578;28;20020;-64
2021/10/30 00:05:56;;;;;;;11.53;7.63;;;;;;;10.84;100.00;100394.94;2107529;28;20032;-64
2021/10/30 00:06:58;;;;;;;9.77;7.73;;;;;;;10.84;100.00;100379.25;2106858;28;20128;-63
2021/10/30 00:07:59;;;;;;;11.43;7.60;;;;;;;10.82;100.00;100387.16;2106780;28;20024;-63
2021/10/30 00:08:59;;;;;;;9.60;7.33;;;;;;;10.86;100.00;100380.88;2106890;28;20024;-64
2021/10/30 00:09:59;;;;;;;8.03;6.93;;;;;;;10.90;100.00;100386.75;2107578;28;20031;-64
2021/10/30 00:11:00;;;;;;;9.03;7.27;;;;;;;10.96;100.00;100386.47;2107497;28;20047;-63
2021/10/30 00:12:00;;;;;;;9.80;7.23;;;;;;;10.94;100.00;100383.06;2107558;28;20051;-64
2021/10/30 00:13:01;;;;;;;9.40;7.03;;;;;;;10.93;100.00;100381.41;2107489;28;20491;-64
2021/10/30 00:14:01;;;;;;;10.73;7.40;;;;;;;10.92;100.00;100388.38;2107464;28;20484;-64
2021/10/30 00:15:03;;;;;;;10.67;6.90;;;;;;;10.92;100.00;100393.59;2107461;28;20285;-65
2021/10/30 00:16:04;;;;;;;10.00;7.20;;;;;;;10.91;100.00;100391.06;2107541;28;20060;-65
2021/10/30 00:17:04;;;;;;;8.20;7.38;;;;;;;10.93;100.00;100384.84;2107497;28;20032;-72
2021/10/30 00:18:05;;;;;;;10.13;7.93;;;;;;;10.95;100.00;100385.59;2107514;28;20099;-70
2021/10/30 00:19:05;;;;;;;;;;;;;;;10.97;100.00;100380.31;2107917;28;20061;-70
2021/10/30 00:20:06;;;;;;;10.18;7.32;;;;;;;10.99;100.00;100378.47;2107363;28;19912;-71
2021/10/30 00:21:06;;;;;;;10.35;8.52;;;;;;;11.00;100.00;100368.88;2107443;28;20032;-70
2021/10/30 00:22:08;;;;;;;10.13;6.47;;;;;;;11.00;100.00;100384.53;2107467;28;20020;-70
2021/10/30 00:23:08;;;;;;;9.73;7.47;;;;;;;10.98;100.00;100371.53;2106800;28;20050;-70
2021/10/30 00:24:08;;;;;;;9.63;7.37;;;;;;;10.95;100.00;100371.72;2106745;28;20114;-69
2021/10/30 00:25:09;;;;;;;11.47;8.07;;;;;;;11.03;100.00;100374.78;2107262;28;20023;-71
2021/10/30 00:26:09;;;;;;;8.70;7.27;;;;;;;11.07;100.00;100372.84;2106444;28;20027;-71
2021/10/30 00:27:10;;;;;;;8.03;6.73;;;;;;;11.06;100.00;100368.56;2106488;28;20024;-70
2021/10/30 00:28:10;;;;;;;;;;;;;;;11.03;100.00;100371.31;2107902;28;20368;-70
2021/10/30 00:29:11;;;;;;;9.23;6.97;;;;;;;11.03;100.00;100364.34;2107230;28;19908;-71
2021/10/30 00:30:11;;;;;;;8.70;7.80;;;;;;;11.07;100.00;100360.66;2107284;28;20392;-70
2021/10/30 00:31:11;;;;;;;11.00;8.07;;;;;;;11.06;100.00;100364.16;2107212;28;20039;-70
2021/10/30 00:32:11;;;;;;;10.50;7.93;;;;;;;11.01;100.00;100363.56;2107012;28;20028;-70
2021/10/30 00:33:12;;;;;;;10.10;7.17;;;;;;;10.95;100.00;100362.13;2107150;28;20028;-70
2021/10/30 00:34:12;;;;;;;9.00;6.93;;;;;;;10.89;100.00;100362.44;2107196;28;20055;-70
2021/10/30 00:35:13;;;;;;;8.70;7.80;;;;;;;10.87;100.00;100358.19;2107369;28;20047;-64
2021/10/30 00:36:13;;;;;;;11.27;8.10;;;;;;;10.91;100.00;100359.72;2107218;28;20103;-64
2021/10/30 00:37:13;;;;;;;10.47;7.30;;;;;;;10.92;100.00;100351.00;2107023;28;20292;-65
2021/10/30 00:38:14;;;;;;;8.02;6.82;;;;;;;10.95;100.00;100348.22;2107286;28;20598;-64
2021/10/30 00:39:14;;;;;;;10.30;8.13;;;;;;;10.95;100.00;100345.63;2106548;28;20500;-65
2021/10/30 00:40:14;;;;;;;8.63;7.17;;;;;;;10.89;100.00;100348.53;2098270;28;20021;-64
2021/10/30 00:41:15;;;;;;;9.07;8.17;;;;;;;10.87;100.00;100351.22;2106631;28;20020;-64
2021/10/30 00:42:16;;;;;;;10.05;7.10;;;;;;;10.85;100.00;100341.78;2107308;28;20103;-64
2021/10/30 00:43:16;;;;;;;10.70;7.70;;;;;;;10.84;100.00;100340.13;2106628;28;20037;-64
2021/10/30 00:44:17;;;;;;;8.05;7.32;;;;;;;10.77;100.00;100336.94;2106532;28;20027;-64
2021/10/30 00:45:17;;;;;;;9.05;7.10;;;;;;;10.76;100.00;100341.34;2107274;28;20031;-64
2021/10/30 00:46:18;;;;;;;14.17;8.60;;;;;;;10.77;100.00;100345.63;2107155;28;20039;-65
2021/10/30 00:47:18;;;;;;;10.03;8.03;;;;;;;10.74;100.00;100343.19;2107246;28;20058;-70
2021/10/30 00:48:18;;;;;;;11.73;8.53;;;;;;;10.72;100.00;100329.38;2106482;28;20047;-69
2021/10/30 00:49:20;;;;;;;9.70;7.40;;;;;;;10.69;100.00;100335.59;2106611;28;20515;-70
2021/10/30 00:50:21;;;;;;;10.27;7.25;;;;;;;10.67;100.00;100331.34;2106967;28;20020;-69
2021/10/30 00:51:21;;;;;;;12.05;8.02;;;;;;;10.70;100.00;100333.81;2107222;28;20099;-70
2021/10/30 00:52:22;;;;;;;8.97;7.83;;;;;;;10.66;100.00;100334.91;2107220;28;20059;-70
2021/10/30 00:53:28;;;;;;;10.70;7.50;;;;;;;10.64;100.00;100326.31;2106968;28;20034;-70
2021/10/30 00:54:31;;;;;;;9.20;7.00;;;;;;;10.66;100.00;100325.31;2107898;28;20157;-70
2021/10/30 00:55:32;;;;;;;10.27;6.15;;;;;;;10.67;100.00;100336.56;2106963;28;20028;-70
2021/10/30 00:56:32;;;;;;;8.68;6.40;;;;;;;10.64;100.00;100331.53;2108007;28;20397;-70
2021/10/30 00:57:36;;;;;;;9.75;7.40;;;;;;;10.62;100.00;100338.59;2106783;28;20073;-70
2021/10/30 00:58:37;;;;;;;8.55;6.32;;;;;;;10.58;100.00;100331.84;2106827;28;20073;-70
2021/10/30 00:59:38;;;;;;;9.48;7.03;;;;;;;10.59;100.00;100336.13;2106839;28;20054;-70
2021/10/30 01:00:38;;;;;;;8.32;7.53;;;;;;;10.56;100.00;100330.16;2106937;28;20032;-70
2021/10/30 01:01:40;;;;;;;9.13;6.30;;;;;;;10.53;100.00;100330.31;2106337;28;20028;-70
2021/10/30 01:02:41;;;;;;;8.80;7.45;;;;;;;10.50;100.00;100329.63;2106126;28;20071;-70
2021/10/30 01:03:41;;;;;;;8.60;6.25;;;;;;;10.50;100.00;100329.63;2106836;28;20140;-70
2021/10/30 01:04:41;;;;;;;10.87;6.90;;;;;;;10.47;100.00;100325.38;2106939;28;20020;-70
2021/10/30 01:05:42;;;;;;;8.03;7.23;;;;;;;10.47;100.00;100322.78;2106807;28;20366;-70
2021/10/30 01:06:44;;;;;;;11.67;6.40;;;;;;;10.41;100.00;100325.69;2107002;28;20044;-70
2021/10/30 01:07:45;;;;;;;11.38;7.45;;;;;;;10.39;100.00;100327.50;2106844;28;20024;-70
2021/10/30 01:08:46;;;;;;;10.07;7.95;;;;;;;10.47;100.00;100325.38;2106843;28;20026;-71
2021/10/30 01:09:48;;;;;;;10.85;7.88;;;;;;;10.51;100.00;100320.88;2106973;28;20492;-70
2021/10/30 01:10:48;;;;;;;9.77;7.47;;;;;;;10.47;100.00;100319.34;2106222;28;20020;-70
2021/10/30 01:11:51;;;;;;;8.77;6.70;;;;;;;10.44;100.00;100315.09;2106263;28;20469;-70
2021/10/30 01:12:52;;;;;;;8.10;6.75;;;;;;;10.41;100.00;100317.84;2106739;28;20335;-70
2021/10/30 01:13:54;;;;;;;10.23;7.03;;;;;;;10.43;100.00;100324.69;2106871;28;20081;-70
2021/10/30 01:14:55;;;;;;;13.15;7.60;;;;;;;10.45;100.00;100318.56;2106986;28;20047;-70
2021/10/30 01:15:55;;;;;;;8.80;7.65;;;;;;;10.40;100.00;100313.56;2106759;28;20035;-70
2021/10/30 01:16:57;;;;;;;7.40;6.60;;;;;;;10.41;100.00;100317.84;2106007;28;20428;-70
2021/10/30 01:17:57;;;;;;;9.45;6.43;;;;;;;10.38;100.00;100320.59;2106196;28;20532;-70
2021/10/30 01:19:00;;;;;;;8.67;7.57;;;;;;;10.34;100.00;100314.72;2106090;28;20026;-70
2021/10/30 01:20:00;;;;;;;7.10;6.35;;;;;;;10.29;100.00;100321.91;2106022;28;20020;-71
2021/10/30 01:21:01;;;;;;;7.90;6.00;;;;;;;10.22;100.00;100331.81;2106521;28;20039;-71
2021/10/30 01:22:02;;;;;;;9.13;6.07;;;;;;;10.15;100.00;100326.06;2106588;28;20016;-70
2021/10/30 01:23:03;;;;;;;10.38;7.40;;;;;;;10.15;100.00;100322.59;2105906;28;20066;-70
2021/10/30 01:24:05;;;;;;;9.37;7.43;;;;;;;10.17;100.00;100318.16;2106147;28;20481;-70
2021/10/30 01:25:06;;;;;;;8.50;6.35;;;;;;;10.18;100.00;100322.44;2106804;28;20016;-70
2021/10/30 01:26:06;;;;;;;8.45;7.57;;;;;;;10.13;100.00;100322.66;2106700;28;20032;-70
2021/10/30 01:27:07;;;;;;;8.90;7.43;;;;;;;10.15;100.00;100320.84;2106924;28;20058;-70
2021/10/30 01:28:07;;;;;;;9.43;7.78;;;;;;;10.25;100.00;100315.16;2106723;28;20035;-69
2021/10/30 01:29:07;;;;;;;10.23;7.90;;;;;;;10.29;100.00;100311.47;2106697;28;20024;-69
2021/10/30 01:30:08;;;;;;;9.27;8.27;;;;;;;10.31;100.00;100315.69;2106814;28;20060;-71
2021/10/30 01:31:08;;;;;;;8.17;6.80;;;;;;;10.30;100.00;100314.00;2106691;28;20024;-69
2021/10/30 01:32:08;;;;;;;11.63;8.23;;;;;;;10.27;100.00;100323.75;2106727;28;20404;-69
2021/10/30 01:33:09;;;;;;;7.63;6.37;;;;;;;10.31;100.00;100315.69;2106606;28;20107;-70
2021/10/30 01:34:10;;;;;;;8.80;6.33;;;;;;;10.33;100.00;100309.56;2106602;28;20322;-69
2021/10/30 01:35:10;;;;;;;7.80;6.07;;;;;;;10.34;100.00;100314.72;2106564;28;20102;-70
2021/10/30 01:36:13;;;;;;;8.60;6.23;;;;;;;10.32;100.00;100311.31;2106727;28;20030;-71
2021/10/30 01:37:14;;;;;;;10.85;7.28;;;;;;;10.33;100.00;100314.78;2106410;28;20016;-69
2021/10/30 01:38:16;;;;;;;9.98;7.00;;;;;;;10.37;100.00;100298.06;2106643;28;20028;-70
2021/10/30 01:39:16;;;;;;;11.35;7.57;;;;;;;10.44;100.00;100304.66;2106578;28;20100;-70
2021/10/30 01:40:17;;;;;;;10.03;6.97;;;;;;;10.46;100.00;100302.84;2106816;28;20024;-69
2021/10/30 01:41:21;;;;;;;12.47;8.40;;;;;;;10.45;100.00;100300.31;2106255;28;20027;-70
2021/10/30 01:42:22;;;;;;;8.50;7.20;;;;;;;10.54;100.00;100298.06;2106283;28;20051;-70
2021/10/30 01:43:22;;;;;;;9.77;7.93;;;;;;;10.50;100.00;100293.94;2106181;28;20024;-70
2021/10/30 01:44:22;;;;;;;7.30;6.60;;;;;;;10.54;100.00;100289.41;2106461;28;20019;-70
2021/10/30 01:45:23;;;;;;;10.47;7.43;;;;;;;10.58;100.00;100279.66;2106411;28;20052;-68
2021/10/30 01:46:25;;;;;;;9.93;8.10;;;;;;;10.64;100.00;100284.56;2106501;28;20092;-70
2021/10/30 01:47:25;;;;;;;9.00;7.97;;;;;;;10.60;100.00;100288.25;2106656;28;20024;-69
2021/10/30 01:48:29;;;;;;;8.57;6.90;;;;;;;10.55;100.00;100291.09;2106540;28;20040;-70
2021/10/30 01:49:30;;;;;;;9.90;7.20;;;;;;;10.55;100.00;100285.88;2106643;28;20028;-70
2021/10/30 01:50:30;;;;;;;9.68;7.95;;;;;;;10.60;100.00;100288.25;2106438;28;20043;-70
2021/10/30 01:51:31;;;;;;;8.03;6.90;;;;;;;10.53;100.00;100283.34;2106574;28;20024;-70
2021/10/30 01:52:31;;;;;;;6.70;5.97;;;;;;;10.52;100.00;100289.50;2106641;28;20028;-70
2021/10/30 01:53:33;;;;;;;8.60;7.67;;;;;;;10.57;100.00;100289.22;2105981;28;20114;-69
2021/10/30 01:54:33;;;;;;;8.63;7.15;;;;;;;10.59;100.00;100281.34;2097713;28;20017;-70
2021/10/30 01:55:37;;;;;;;7.70;7.00;;;;;;;10.54;100.00;100290.25;2106019;28;20381;-69
2021/10/30 01:56:37;;;;;;;8.55;6.88;;;;;;;10.50;100.00;100280.88;2105842;28;20417;-69
2021/10/30 01:57:37;;;;;;;8.83;6.70;;;;;;;10.52;100.00;100281.66;2105796;28;20020;-70
2021/10/30 01:58:38;;;;;;;8.10;7.30;;;;;;;10.54;100.00;100269.38;2106022;28;20028;-70
2021/10/30 01:59:38;;;;;;;10.10;6.57;;;;;;;10.53;100.00;100278.13;2106520;28;20099;-69
2021/10/30 02:00:39;;;;;;;8.77;5.13;;;;;;;10.47;100.00;100278.44;2106430;28;20016;-69
2021/10/30 02:01:40;;;;;;;;;;;;;;;10.42;100.00;100264.75;2107143;28;20501;-69
2021/10/30 02:02:40;;;;;;;8.03;6.30;;;;;;;10.46;100.00;100266.31;2106481;28;19911;-69
2021/10/30 02:03:41;;;;;;;8.68;7.82;;;;;;;10.43;100.00;100254.25;2106501;28;20028;-69
2021/10/30 02:04:41;;;;;;;7.20;5.93;;;;;;;10.40;100.00;100262.22;2106520;28;20380;-70
2021/10/30 02:05:41;;;;;;;7.50;5.77;;;;;;;10.37;100.00;100264.16;2106382;28;20025;-70
2021/10/30 02:06:41;;;;;;;8.77;6.17;;;;;;;10.33;100.00;100258.22;2106500;28;20016;-70
2021/10/30 02:07:42;;;;;;;10.87;7.93;;;;;;;10.33;100.00;100260.03;2105871;28;20081;-69
2021/10/30 02:08:43;;;;;;;9.88;7.07;;;;;;;10.31;100.00;100253.09;2107109;28;20024;-69
2021/10/30 02:09:43;;;;;;;9.13;6.97;;;;;;;10.36;100.00;100259.84;2108704;28;20463;-70
2021/10/30 02:10:43;;;;;;;7.23;6.53;;;;;;;10.43;100.00;100261.22;2106501;28;20293;-70
2021/10/30 02:11:43;;;;;;;7.53;6.80;;;;;;;10.44;100.00;100252.50;2106474;28;20465;-70
2021/10/30 02:12:44;;;;;;;9.00;7.13;;;;;;;10.42;100.00;100251.72;2106571;28;20051;-70
2021/10/30 02:13:44;;;;;;;10.85;7.30;;;;;;;10.42;100.00;100252.56;2106533;28;20031;-70
2021/10/30 02:14:44;;;;;;;8.17;7.37;;;;;;;10.42;100.00;100244.75;2106582;28;20027;-70
2021/10/30 02:15:46;;;;;;;9.53;7.60;;;;;;;10.50;100.00;100246.97;2106610;28;20446;-70
2021/10/30 02:16:46;;;;;;;11.07;7.60;;;;;;;10.54;100.00;100238.06;2106789;28;20146;-70
2021/10/30 02:17:46;;;;;;;9.00;7.17;;;;;;;10.53;100.00;100241.59;2106750;28;20447;-70
2021/10/30 02:18:47;;;;;;;9.00;7.47;;;;;;;10.49;100.00;100237.47;2106631;28;20209;-69
2021/10/30 02:19:47;;;;;;;7.90;7.00;;;;;;;10.49;100.00;100234.00;2106373;28;20059;-69
2021/10/30 02:20:48;;;;;;;9.02;6.85;;;;;;;10.60;100.00;100230.84;2106412;28;20019;-69
2021/10/30 02:21:48;;;;;;;14.18;7.53;;;;;;;10.60;100.00;100236.91;2106489;28;20026;-70
2021/10/30 02:22:52;;;;;;;9.18;7.40;;;;;;;10.58;100.00;100233.53;2106421;28;20486;-70
2021/10/30 02:23:52;;;;;;;11.38;7.20;;;;;;;10.55;100.00;100234.53;2106538;28;20080;-71
2021/10/30 02:24:52;;;;;;;9.97;7.87;;;;;;;10.53;100.00;100231.16;2105687;28;20483;-70
2021/10/30 02:25:53;;;;;;;8.53;6.10;;;;;;;10.53;100.00;100223.34;2105943;28;20028;-70
2021/10/30 02:26:53;;;;;;;8.63;7.37;;;;;;;10.53;100.00;100223.34;2106320;28;20059;-70
2021/10/30 02:27:53;;;;;;;9.07;7.20;;;;;;;10.52;100.00;100224.28;2106430;28;20031;-70
2021/10/30 02:28:54;;;;;;;9.57;5.53;;;;;;;10.48;100.00;100214.91;2105584;28;20024;-70
2021/10/30 02:29:54;;;;;;;8.70;6.87;;;;;;;10.48;100.00;100211.47;2105956;28;20024;-70
2021/10/30 02:30:54;;;;;;;7.93;7.00;;;;;;;10.49;100.00;100202.69;2106411;28;20028;-70
2021/10/30 02:31:54;;;;;;;10.03;7.57;;;;;;;10.45;100.00;100209.00;2106564;28;20020;-69
2021/10/30 02:32:55;;;;;;;8.77;6.67;;;;;;;10.43;100.00;100202.06;2106538;28;20051;-70
2021/10/30 02:33:55;;;;;;;10.02;7.00;;;;;;;10.49;100.00;100208.78;2106421;28;20039;-70
2021/10/30 02:34:56;;;;;;;7.70;6.23;;;;;;;10.51;100.00;100206.91;2106253;28;20024;-70
2021/10/30 02:35:56;;;;;;;8.67;5.87;;;;;;;10.52;100.00;100197.31;2105592;28;20101;-70
2021/10/30 02:36:56;;;;;;;8.40;5.55;;;;;;;10.55;100.00;100198.00;2105718;28;20027;-70
2021/10/30 02:37:57;;;;;;;13.07;6.33;;;;;;;10.58;100.00;100201.38;2106186;28;20052;-70
2021/10/30 02:38:58;;;;;;;12.15;7.22;;;;;;;10.56;100.00;100194.47;2106451;28;20059;-70
2021/10/30 02:39:58;;;;;;;8.57;7.35;;;;;;;10.58;100.00;100190.94;2106477;28;20024;-70
2021/10/30 02:40:58;;;;;;;10.70;7.53;;;;;;;10.65;100.00;100192.31;2106298;28;20020;-70
2021/10/30 02:41:59;;;;;;;8.40;7.10;;;;;;;10.68;100.00;100187.75;2106370;28;20032;-69
2021/10/30 02:42:59;;;;;;;10.97;6.30;;;;;;;10.68;100.00;100197.38;2106398;28;20020;-69
2021/10/30 02:43:59;;;;;;;9.50;8.67;;;;;;;10.69;100.00;100204.25;2106366;28;20090;-69
2021/10/30 02:45:00;;;;;;;8.63;5.77;;;;;;;10.73;100.00;100205.78;2106336;28;20039;-70
2021/10/30 02:46:00;;;;;;;9.00;7.57;;;;;;;10.72;100.00;100198.88;2106462;28;20035;-70
2021/10/30 02:47:00;;;;;;;10.23;7.80;;;;;;;10.71;100.00;100205.00;2106426;28;20059;-69
2021/10/30 02:48:02;;;;;;;9.00;8.07;;;;;;;10.71;100.00;100199.78;2106627;28;20088;-71
2021/10/30 02:49:02;;;;;;;9.30;7.63;;;;;;;10.75;100.00;100198.72;2106385;28;20032;-70
2021/10/30 02:50:03;;;;;;;12.70;7.17;;;;;;;10.84;100.00;100199.16;2106356;28;20507;-71
2021/10/30 02:51:03;;;;;;;7.63;6.55;;;;;;;10.86;100.00;100194.69;2106417;28;20020;-70
2021/10/30 02:52:04;;;;;;;9.77;7.63;;;;;;;10.86;100.00;100184.25;2106373;28;20380;-70
2021/10/30 02:53:05;;;;;;;9.60;8.38;;;;;;;10.88;100.00;100178.00;2106444;28;20050;-70
2021/10/30 02:54:05;;;;;;;14.40;7.90;;;;;;;10.89;100.00;100176.25;2105701;28;20059;-71
2021/10/30 02:55:06;;;;;;;8.13;7.33;;;;;;;10.92;100.00;100181.31;2106846;28;20031;-69
2021/10/30 02:56:06;;;;;;;9.18;8.10;;;;;;;10.89;100.00;100174.50;2107982;28;20541;-69
2021/10/30 02:57:06;;;;;;;12.20;7.83;;;;;;;10.89;100.00;100173.63;2107375;28;20074;-70
2021/10/30 02:58:07;;;;;;;9.17;8.00;;;;;;;10.89;100.00;100165.81;2107271;28;20051;-69
2021/10/30 02:59:07;;;;;;;12.10;6.30;;;;;;;10.89;100.00;100165.81;2107810;28;20118;-69
2021/10/30 03:00:08;;;;;;;10.47;8.10;;;;;;;10.92;100.00;100163.03;2107314;28;20031;-68
2021/10/30 03:01:08;;;;;;;12.30;7.65;;;;;;;10.98;100.00;100167.91;2107433;28;20023;-70
2021/10/30 03:02:09;;;;;;;10.53;7.27;;;;;;;10.97;100.00;100165.38;2107966;28;20115;-69
2021/10/30 03:03:10;;;;;;;10.90;7.90;;;;;;;10.97;100.00;100160.16;2107368;28;20028;-70
2021/10/30 03:04:10;;;;;;;11.87;8.03;;;;;;;10.98;100.00;100149.63;2107455;28;20020;-69
2021/10/30 03:05:10;;;;;;;10.63;8.33;;;;;;;11.03;100.00;100152.00;2107987;28;20024;-69
2021/10/30 03:06:11;;;;;;;10.18;8.05;;;;;;;11.05;100.00;100150.97;2107968;28;20032;-69
2021/10/30 03:07:11;;;;;;;13.90;8.05;;;;;;;11.07;100.00;100151.75;2108084;28;20055;-70
2021/10/30 03:08:12;;;;;;;9.33;7.30;;;;;;;11.06;100.00;100160.50;2108017;28;20024;-70
2021/10/30 03:09:12;;;;;;;12.10;7.57;;;;;;;11.06;100.00;100170.09;2107977;28;20024;-69
2021/10/30 03:10:12;;;;;;;11.27;7.73;;;;;;;11.10;100.00;100168.16;2107806;28;20085;-70
2021/10/30 03:11:12;;;;;;;9.47;7.57;;;;;;;11.14;100.00;100156.59;2107302;28;20192;-70
2021/10/30 03:12:13;;;;;;;12.97;8.97;;;;;;;11.14;100.00;100156.59;2107163;28;20091;-70
2021/10/30 03:13:13;;;;;;;13.93;9.63;;;;;;;11.14;100.00;100161.84;2107771;28;20449;-70
2021/10/30 03:14:13;;;;;;;11.37;8.40;;;;;;;11.08;100.00;100163.00;2107832;28;20039;-69
2021/10/30 03:15:15;;;;;;;10.83;7.90;;;;;;;11.03;100.00;100160.69;2108353;28;20149;-71
2021/10/30 03:16:16;;;;;;;10.40;8.07;;;;;;;10.99;100.00;100159.16;2107751;28;20055;-70
2021/10/30 03:17:16;;;;;;;15.90;8.23;;;;;;;10.98;100.00;100152.25;2107766;28;20032;-70
2021/10/30 03:18:16;;;;;;;9.17;7.83;;;;;;;10.93;100.00;100149.06;2107213;28;20028;-70
2021/10/30 03:19:16;;;;;;;11.60;8.67;;;;;;;10.97;100.00;100147.94;2107308;28;20036;-70
2021/10/30 03:20:17;;;;;;;11.20;8.73;;;;;;;10.99;100.00;100161.78;2107805;28;20028;-70
2021/10/30 03:21:17;;;;;;;10.65;8.00;;;;;;;10.98;100.00;100157.47;2107615;28;20035;-70
2021/10/30 03:22:18;;;;;;;11.10;9.73;;;;;;;10.99;100.00;100158.31;2107739;28;20020;-69
2021/10/30 03:23:18;;;;;;;9.93;7.78;;;;;;;10.97;100.00;100155.78;2106979;28;20024;-70
2021/10/30 03:24:19;;;;;;;15.20;9.03;;;;;;;11.00;100.00;100154.78;2098586;28;20030;-70
2021/10/30 03:25:19;;;;;;;8.77;7.00;;;;;;;10.98;100.00;100152.25;2106938;28;20024;-69
2021/10/30 03:26:19;;;;;;;8.70;7.57;;;;;;;10.99;100.00;100151.34;2107612;28;20024;-68
2021/10/30 03:27:20;;;;;;;10.63;8.67;;;;;;;10.98;100.00;100151.41;2107476;28;20027;-70
2021/10/30 03:28:20;;;;;;;9.57;6.90;;;;;;;10.97;100.00;100145.34;2107418;28;20032;-69
2021/10/30 03:29:20;;;;;;;9.33;7.87;;;;;;;10.97;100.00;100134.91;2106976;28;20393;-69
2021/10/30 03:30:21;;;;;;;10.83;7.80;;;;;;;10.94;100.00;100135.06;2106983;28;20016;-69
2021/10/30 03:31:21;;;;;;;9.13;6.82;;;;;;;10.92;100.00;100129.09;2107482;28;20477;-70
2021/10/30 03:32:21;;;;;;;11.27;8.00;;;;;;;10.99;100.00;100117.41;2107405;28;20513;-69
2021/10/30 03:33:22;;;;;;;13.97;7.63;;;;;;;11.05;100.00;100119.66;2106674;28;20020;-69
2021/10/30 03:34:22;;;;;;;12.38;8.52;;;;;;;11.10;100.00;100123.75;2098325;28;20017;-70
2021/10/30 03:35:23;;;;;;;11.50;9.27;;;;;;;11.16;100.00;100128.66;2106888;28;20464;-69
2021/10/30 03:36:23;;;;;;;14.37;9.40;;;;;;;11.18;100.00;100125.03;2107734;28;20473;-70
2021/10/30 03:37:25;;;;;;;12.30;9.63;;;;;;;11.18;100.00;100118.94;2107245;28;20024;-71
2021/10/30 03:38:25;;;;;;;12.73;7.85;;;;;;;11.18;100.00;100121.56;2107405;28;20028;-70
2021/10/30 03:39:26;;;;;;;9.50;5.97;;;;;;;11.13;100.00;100111.41;2107486;28;20473;-69
2021/10/30 03:40:26;;;;;;;12.97;9.13;;;;;;;11.17;100.00;100112.06;2107519;28;20020;-71
2021/10/30 03:41:26;;;;;;;11.67;8.03;;;;;;;11.20;100.00;100109.28;2107058;28;20024;-69
2021/10/30 03:42:27;;;;;;;10.93;8.83;;;;;;;11.17;100.00;100109.44;2106852;28;20028;-70
2021/10/30 03:43:28;;;;;;;14.87;8.97;;;;;;;11.21;100.00;100105.72;2107428;28;20098;-69
2021/10/30 03:44:29;;;;;;;12.30;9.18;;;;;;;11.22;100.00;100107.41;2107502;28;20016;-69
2021/10/30 03:45:29;;;;;;;14.95;10.25;;;;;;;11.22;100.00;100104.78;2107548;28;20038;-70
2021/10/30 03:46:29;;;;;;;12.93;9.83;;;;;;;11.23;99.84;100103.88;2107262;28;20019;-69
2021/10/30 03:47:30;;;;;;;12.70;8.53;;;;;;;11.21;100.00;100100.50;2106709;28;20103;-69
2021/10/30 03:48:30;;;;;;;12.57;8.40;;;;;;;11.18;99.78;100101.53;2106763;28;20030;-70
2021/10/30 03:49:30;;;;;;;13.60;9.17;;;;;;;11.15;100.00;100096.47;2107495;28;20841;-70
2021/10/30 03:50:31;;;;;;;11.73;9.53;;;;;;;11.09;100.00;100099.44;2107596;28;20031;-70
2021/10/30 03:51:31;;;;;;;10.40;8.90;;;;;;;11.07;100.00;100103.91;2107633;28;20107;-70
2021/10/30 03:52:31;;;;;;;12.00;10.07;;;;;;;11.09;100.00;100099.44;2106903;28;20089;-70
2021/10/30 03:53:32;;;;;;;13.40;9.27;;;;;;;11.13;100.00;100097.50;2107079;28;20081;-70
2021/10/30 03:54:32;;;;;;;13.57;9.67;;;;;;;11.14;100.00;100101.78;2107458;28;20438;-70
2021/10/30 03:55:33;;;;;;;14.33;9.57;;;;;;;11.12;100.00;100103.66;2107451;28;20034;-70
2021/10/30 03:56:33;;;;;;;10.57;8.45;;;;;;;11.11;100.00;100097.56;2106904;28;20020;-69
2021/10/30 03:57:33;;;;;;;12.87;9.33;;;;;;;11.08;100.00;100098.59;2106892;28;20023;-69
2021/10/30 03:58:35;;;;;;;11.60;9.67;;;;;;;11.06;100.00;100097.81;2107492;28;20085;-69
2021/10/30 03:59:35;;;;;;;;;;;;;;;11.12;100.00;100095.81;2108129;28;20530;-69
2021/10/30 04:00:35;;;;;;;11.88;9.45;;;;;;;11.16;100.00;100092.09;2107557;28;19969;-70
2021/10/30 04:01:36;;;;;;;14.27;9.40;;;;;;;11.16;100.00;100097.31;2107568;28;20132;-69
2021/10/30 04:02:36;;;;;;;9.38;8.18;;;;;;;11.15;100.00;100100.88;2106660;28;20015;-69
2021/10/30 04:03:36;;;;;;;14.43;10.43;;;;;;;11.15;100.00;100099.06;2106905;28;20500;-69
2021/10/30 04:04:37;;;;;;;12.63;9.60;;;;;;;11.11;100.00;100099.31;2107461;28;20488;-69
2021/10/30 04:05:38;;;;;;;10.17;8.20;;;;;;;11.07;100.00;100096.06;2107226;28;20036;-69
2021/10/30 04:06:38;;;;;;;13.73;9.05;;;;;;;11.12;100.00;100095.81;2106121;28;20769;-68
2021/10/30 04:07:39;;;;;;;16.53;9.97;;;;;;;11.15;100.00;100100.88;2106938;28;20016;-68
2021/10/30 04:08:39;;;;;;;12.20;9.70;;;;;;;11.14;100.00;100104.38;2107454;28;20024;-68
2021/10/30 04:09:39;;;;;;;13.00;9.63;;;;;;;11.13;100.00;100098.34;2107377;28;20491;-69
2021/10/30 04:10:40;;;;;;;13.43;10.23;;;;;;;11.13;100.00;100098.34;2107426;28;20024;-70
2021/10/30 04:11:40;;;;;;;13.13;10.00;;;;;;;11.14;100.00;100093.94;2107489;28;20024;-69
2021/10/30 04:12:41;;;;;;;13.27;9.97;;;;;;;11.14;100.00;100091.31;2107506;28;20081;-69
2021/10/30 04:13:41;;;;;;;11.70;9.18;;;;;;;11.11;100.00;100091.50;2107405;28;20125;-69
2021/10/30 04:14:42;;;;;;;13.45;9.95;;;;;;;11.08;100.00;100095.97;2106720;28;20109;-69
2021/10/30 04:15:42;;;;;;;16.23;11.33;;;;;;;11.09;100.00;100102.06;2106986;28;20016;-68
2021/10/30 04:16:43;;;;;;;16.07;10.23;;;;;;;11.08;100.00;100095.97;2107382;28;20012;-69
2021/10/30 04:17:43;;;;;;;13.07;10.70;;;;;;;11.06;100.00;100092.59;2107273;28;20024;-68
2021/10/30 04:18:44;;;;;;;18.63;10.23;;;;;;;11.04;100.00;100099.69;2106668;28;20397;-69
2021/10/30 04:19:44;;;;;;;12.57;9.50;;;;;;;11.01;100.00;100094.63;2106772;28;20070;-69
2021/10/30 04:20:45;;;;;;;11.63;10.37;;;;;;;11.01;100.00;100093.78;2107225;28;20020;-69
2021/10/30 04:21:45;;;;;;;17.55;10.27;;;;;;;11.00;100.00;100092.97;2107411;28;20032;-69
2021/10/30 04:22:45;;;;;;;14.80;11.23;;;;;;;11.03;100.00;100097.16;2107298;28;20048;-69
2021/10/30 04:23:46;;;;;;;14.63;10.50;;;;;;;11.03;100.00;100092.78;2107334;28;20031;-69
2021/10/30 04:24:46;;;;;;;11.63;9.93;;;;;;;11.03;100.00;100099.78;2107298;28;20396;-69
2021/10/30 04:25:46;;;;;;;13.67;9.00;;;;;;;11.03;100.00;100099.78;2106529;28;20046;-68
2021/10/30 04:26:46;;;;;;;20.50;10.80;;;;;;;11.01;100.00;100092.03;2106720;28;20102;-69
2021/10/30 04:27:47;;;;;;;14.73;10.50;;;;;;;11.02;100.00;100096.31;2107414;28;20028;-68
2021/10/30 04:28:47;;;;;;;14.90;9.60;;;;;;;11.02;100.00;100093.69;2107281;28;20024;-69
2021/10/30 04:29:47;;;;;;;13.80;10.53;;;;;;;11.00;100.00;100098.19;2107410;28;20059;-68
2021/10/30 04:30:48;;;;;;;19.23;10.87;;;;;;;11.00;100.00;100092.97;2107231;28;20078;-68
2021/10/30 04:31:51;;;;;;;14.38;10.20;;;;;;;11.00;100.00;100097.34;2107484;28;20055;-69
2021/10/30 04:32:52;;;;;;;13.48;9.95;;;;;;;11.04;100.00;100097.09;2107356;28;20491;-69
2021/10/30 04:33:55;;;;;;;17.80;10.50;;;;;;;11.06;100.00;100100.44;2107319;28;20031;-69
2021/10/30 04:35:09;;;;;;;15.50;10.02;;;;;;;11.07;100.00;100099.53;2106517;28;20112;-69
2021/10/30 04:36:15;;;;;;;13.48;10.88;;;;;;;11.06;100.00;100089.16;2106709;28;20145;-69
2021/10/30 04:37:16;;;;;;;11.93;10.52;;;;;;;11.00;100.00;100090.34;2106907;28;20024;-69
2021/10/30 04:38:16;;;;;;;15.40;10.43;;;;;;;10.99;100.00;100086.06;2106608;28;20027;-68